St Helier, United Kingdom
Current Conditions -  °F | °C
As of 9:50 PM on Friday 19 Dec 2014 (Local Time) from EGJJ Reporting Station
Broken Clouds Broken Clouds  
Wind Chill:   Ceiling: 4000
Heat Index:   Visibility: 6mi
Dew Point:   Wind: 14mph
Humidity: 62%   Direction: 320°NW
Pressure: 30.33"   Gusts: NA
Location:  49.18°N, 2.1°W
Report Text: EGJJ 192050Z 32012KT 9999 BKN040 09/02 Q1027 NOSIG
Loading
Personal Weather Stations






























Interactive Weather Map New forecast layout! Learn more

10-Day Weather Forecast

Advertisements
Track Severe Weather on mobile